sensor_id;sensor_type;location;lat;lon;timestamp;P1;durP1;ratioP1;P2;durP2;ratioP2
67816;SDS011;54614;47.576;7.524;2023-05-21T18:08:50;12.50;;;6.70;;
67816;SDS011;54614;47.576;7.524;2023-05-21T18:11:17;11.53;;;6.60;;
67816;SDS011;54614;47.576;7.524;2023-05-21T18:13:43;17.20;;;7.40;;
67816;SDS011;54614;47.576;7.524;2023-05-21T18:16:09;18.13;;;7.13;;
67816;SDS011;54614;47.576;7.524;2023-05-21T18:18:35;17.40;;;6.80;;
67816;SDS011;54614;47.576;7.524;2023-05-21T18:21:01;13.97;;;6.80;;
67816;SDS011;54614;47.576;7.524;2023-05-21T18:23:27;8.67;;;6.83;;
67816;SDS011;54614;47.576;7.524;2023-05-21T18:25:55;14.68;;;6.97;;
67816;SDS011;54614;47.576;7.524;2023-05-21T18:28:21;15.90;;;6.67;;
67816;SDS011;54614;47.576;7.524;2023-05-21T18:30:47;17.80;;;6.50;;
67816;SDS011;54614;47.576;7.524;2023-05-21T18:33:13;13.13;;;6.87;;
67816;SDS011;54614;47.576;7.524;2023-05-21T18:35:42;12.07;;;6.77;;
67816;SDS011;54614;47.576;7.524;2023-05-21T18:38:09;20.30;;;6.50;;
67816;SDS011;54614;47.576;7.524;2023-05-21T18:40:35;16.20;;;6.60;;
67816;SDS011;54614;47.576;7.524;2023-05-21T18:43:02;16.00;;;6.53;;
67816;SDS011;54614;47.576;7.524;2023-05-21T18:45:29;14.53;;;7.03;;
67816;SDS011;54614;47.576;7.524;2023-05-21T18:47:56;21.70;;;7.07;;
67816;SDS011;54614;47.576;7.524;2023-05-21T18:50:23;22.60;;;6.70;;
67816;SDS011;54614;47.576;7.524;2023-05-21T18:52:49;15.80;;;6.47;;
67816;SDS011;54614;47.576;7.524;2023-05-21T18:55:21;15.07;;;6.00;;
67816;SDS011;54614;47.576;7.524;2023-05-21T18:57:48;24.58;;;6.75;;
67816;SDS011;54614;47.576;7.524;2023-05-21T19:00:14;17.15;;;7.15;;
67816;SDS011;54614;47.576;7.524;2023-05-21T19:02:41;18.63;;;6.40;;
67816;SDS011;54614;47.576;7.524;2023-05-21T19:05:08;13.05;;;6.20;;
67816;SDS011;54614;47.576;7.524;2023-05-21T19:07:34;25.20;;;7.60;;
67816;SDS011;54614;47.576;7.524;2023-05-21T19:10:01;25.60;;;6.90;;
67816;SDS011;54614;47.576;7.524;2023-05-21T19:12:27;14.17;;;6.57;;
67816;SDS011;54614;47.576;7.524;2023-05-21T19:14:55;12.98;;;6.20;;
67816;SDS011;54614;47.576;7.524;2023-05-21T19:17:22;44.80;;;7.45;;
67816;SDS011;54614;47.576;7.524;2023-05-21T19:19:49;17.40;;;6.27;;
67816;SDS011;54614;47.576;7.524;2023-05-21T19:22:21;17.05;;;6.25;;
67816;SDS011;54614;47.576;7.524;2023-05-21T19:24:48;16.15;;;5.90;;
67816;SDS011;54614;47.576;7.524;2023-05-21T19:27:14;20.30;;;6.53;;
67816;SDS011;54614;47.576;7.524;2023-05-21T19:29:40;14.80;;;5.75;;
67816;SDS011;54614;47.576;7.524;2023-05-21T19:32:06;9.27;;;5.60;;
67816;SDS011;54614;47.576;7.524;2023-05-21T19:34:33;15.80;;;6.03;;
67816;SDS011;54614;47.576;7.524;2023-05-21T19:37:00;12.13;;;6.07;;
67816;SDS011;54614;47.576;7.524;2023-05-21T19:39:28;11.10;;;5.80;;
67816;SDS011;54614;47.576;7.524;2023-05-21T19:42:01;11.05;;;5.80;;
67816;SDS011;54614;47.576;7.524;2023-05-21T19:44:27;15.63;;;5.53;;
67816;SDS011;54614;47.576;7.524;2023-05-21T19:46:53;12.10;;;6.07;;
67816;SDS011;54614;47.576;7.524;2023-05-21T19:49:19;18.00;;;6.85;;
67816;SDS011;54614;47.576;7.524;2023-05-21T19:51:45;14.77;;;5.60;;
67816;SDS011;54614;47.576;7.524;2023-05-21T19:54:11;14.10;;;5.93;;
67816;SDS011;54614;47.576;7.524;2023-05-21T19:56:37;12.70;;;5.60;;
67816;SDS011;54614;47.576;7.524;2023-05-21T19:59:03;14.03;;;5.77;;
67816;SDS011;54614;47.576;7.524;2023-05-21T20:01:29;13.23;;;5.50;;
67816;SDS011;54614;47.576;7.524;2023-05-21T20:03:58;10.43;;;5.70;;
67816;SDS011;54614;47.576;7.524;2023-05-21T20:06:24;11.47;;;5.53;;
67816;SDS011;54614;47.576;7.524;2023-05-21T20:08:50;9.93;;;5.75;;
67816;SDS011;54614;47.576;7.524;2023-05-21T20:11:17;13.73;;;6.03;;
67816;SDS011;54614;47.576;7.524;2023-05-21T20:13:43;13.23;;;5.47;;
67816;SDS011;54614;47.576;7.524;2023-05-21T20:16:14;13.25;;;5.47;;
67816;SDS011;54614;47.576;7.524;2023-05-21T20:18:42;15.68;;;6.00;;
67816;SDS011;54614;47.576;7.524;2023-05-21T20:21:11;9.15;;;5.40;;
67816;SDS011;54614;47.576;7.524;2023-05-21T20:23:45;11.23;;;5.43;;
67816;SDS011;54614;47.576;7.524;2023-05-21T20:26:12;11.03;;;5.57;;
67816;SDS011;54614;47.576;7.524;2023-05-21T20:28:39;13.13;;;5.60;;
67816;SDS011;54614;47.576;7.524;2023-05-21T20:31:05;14.77;;;5.50;;
67816;SDS011;54614;47.576;7.524;2023-05-21T20:33:31;11.80;;;5.50;;
67816;SDS011;54614;47.576;7.524;2023-05-21T20:35:58;13.17;;;5.60;;
67816;SDS011;54614;47.576;7.524;2023-05-21T20:38:25;11.70;;;5.57;;
67816;SDS011;54614;47.576;7.524;2023-05-21T20:40:53;12.87;;;5.10;;
67816;SDS011;54614;47.576;7.524;2023-05-21T20:43:19;6.43;;;4.70;;
67816;SDS011;54614;47.576;7.524;2023-05-21T20:45:45;9.00;;;5.50;;
67816;SDS011;54614;47.576;7.524;2023-05-21T20:48:14;9.43;;;5.45;;
67816;SDS011;54614;47.576;7.524;2023-05-21T20:50:41;8.33;;;5.27;;
67816;SDS011;54614;47.576;7.524;2023-05-21T20:53:10;10.23;;;5.53;;
67816;SDS011;54614;47.576;7.524;2023-05-21T20:55:36;10.53;;;5.70;;
67816;SDS011;54614;47.576;7.524;2023-05-21T20:58:02;9.57;;;5.63;;
67816;SDS011;54614;47.576;7.524;2023-05-21T21:00:32;6.90;;;5.27;;
67816;SDS011;54614;47.576;7.524;2023-05-21T21:02:58;8.97;;;5.60;;
67816;SDS011;54614;47.576;7.524;2023-05-21T21:05:25;8.65;;;5.55;;
67816;SDS011;54614;47.576;7.524;2023-05-21T21:07:52;7.97;;;5.10;;
67816;SDS011;54614;47.576;7.524;2023-05-21T21:10:18;10.30;;;5.60;;
67816;SDS011;54614;47.576;7.524;2023-05-21T21:12:45;9.07;;;4.83;;
67816;SDS011;54614;47.576;7.524;2023-05-21T21:15:11;9.30;;;5.43;;
67816;SDS011;54614;47.576;7.524;2023-05-21T21:17:38;6.80;;;5.30;;
67816;SDS011;54614;47.576;7.524;2023-05-21T21:20:04;7.88;;;5.13;;
67816;SDS011;54614;47.576;7.524;2023-05-21T21:22:31;6.70;;;5.10;;
67816;SDS011;54614;47.576;7.524;2023-05-21T21:24:58;6.60;;;5.10;;
67816;SDS011;54614;47.576;7.524;2023-05-21T21:27:23;7.10;;;4.93;;
67816;SDS011;54614;47.576;7.524;2023-05-21T21:29:50;7.27;;;5.07;;
67816;SDS011;54614;47.576;7.524;2023-05-21T21:32:16;9.83;;;5.23;;
67816;SDS011;54614;47.576;7.524;2023-05-21T21:34:42;7.20;;;4.93;;
67816;SDS011;54614;47.576;7.524;2023-05-21T21:37:08;8.53;;;4.97;;
67816;SDS011;54614;47.576;7.524;2023-05-21T21:39:34;6.33;;;4.80;;
67816;SDS011;54614;47.576;7.524;2023-05-21T21:42:00;6.00;;;4.50;;
67816;SDS011;54614;47.576;7.524;2023-05-21T21:44:26;9.47;;;4.90;;
67816;SDS011;54614;47.576;7.524;2023-05-21T21:46:52;6.17;;;4.60;;
67816;SDS011;54614;47.576;7.524;2023-05-21T21:49:18;6.63;;;4.73;;
67816;SDS011;54614;47.576;7.524;2023-05-21T21:51:44;6.50;;;4.80;;
67816;SDS011;54614;47.576;7.524;2023-05-21T21:54:10;5.70;;;4.30;;
67816;SDS011;54614;47.576;7.524;2023-05-21T21:56:36;7.53;;;4.90;;
67816;SDS011;54614;47.576;7.524;2023-05-21T21:59:02;9.53;;;4.63;;
67816;SDS011;54614;47.576;7.524;2023-05-21T22:01:28;5.50;;;4.77;;
67816;SDS011;54614;47.576;7.524;2023-05-21T22:03:53;6.40;;;4.60;;
67816;SDS011;54614;47.576;7.524;2023-05-21T22:06:20;5.33;;;4.27;;
67816;SDS011;54614;47.576;7.524;2023-05-21T22:08:46;6.37;;;4.53;;
67816;SDS011;54614;47.576;7.524;2023-05-21T22:11:12;9.70;;;4.57;;
67816;SDS011;54614;47.576;7.524;2023-05-21T22:13:39;6.57;;;4.70;;
67816;SDS011;54614;47.576;7.524;2023-05-21T22:16:08;7.07;;;4.77;;
67816;SDS011;54614;47.576;7.524;2023-05-21T22:18:35;5.93;;;4.40;;
67816;SDS011;54614;47.576;7.524;2023-05-21T22:21:05;7.30;;;4.27;;
67816;SDS011;54614;47.576;7.524;2023-05-21T22:23:33;6.87;;;4.60;;
67816;SDS011;54614;47.576;7.524;2023-05-21T22:26:00;5.73;;;3.93;;
67816;SDS011;54614;47.576;7.524;2023-05-21T22:28:27;6.50;;;4.40;;
67816;SDS011;54614;47.576;7.524;2023-05-21T22:30:53;6.83;;;4.23;;
67816;SDS011;54614;47.576;7.524;2023-05-21T22:33:19;7.00;;;4.40;;
67816;SDS011;54614;47.576;7.524;2023-05-21T22:35:45;7.00;;;4.43;;
67816;SDS011;54614;47.576;7.524;2023-05-21T22:38:11;6.77;;;4.50;;
67816;SDS011;54614;47.576;7.524;2023-05-21T22:40:37;7.27;;;4.40;;
67816;SDS011;54614;47.576;7.524;2023-05-21T22:43:04;5.07;;;4.37;;
67816;SDS011;54614;47.576;7.524;2023-05-21T22:45:30;5.37;;;4.00;;
67816;SDS011;54614;47.576;7.524;2023-05-21T22:47:56;6.13;;;4.47;;
67816;SDS011;54614;47.576;7.524;2023-05-21T22:50:30;5.60;;;4.23;;
67816;SDS011;54614;47.576;7.524;2023-05-21T22:52:57;5.00;;;4.13;;
67816;SDS011;54614;47.576;7.524;2023-05-21T22:55:24;4.20;;;3.80;;
67816;SDS011;54614;47.576;7.524;2023-05-21T22:57:50;6.83;;;4.20;;
67816;SDS011;54614;47.576;7.524;2023-05-21T23:00:16;6.07;;;4.10;;
67816;SDS011;54614;47.576;7.524;2023-05-21T23:02:46;5.60;;;4.20;;
67816;SDS011;54614;47.576;7.524;2023-05-21T23:05:13;5.40;;;4.00;;
67816;SDS011;54614;47.576;7.524;2023-05-21T23:07:39;7.47;;;4.10;;
67816;SDS011;54614;47.576;7.524;2023-05-21T23:10:06;5.40;;;3.90;;
67816;SDS011;54614;47.576;7.524;2023-05-21T23:12:33;5.30;;;3.93;;
67816;SDS011;54614;47.576;7.524;2023-05-21T23:14:59;5.13;;;3.90;;
67816;SDS011;54614;47.576;7.524;2023-05-21T23:17:24;4.83;;;4.33;;
67816;SDS011;54614;47.576;7.524;2023-05-21T23:19:50;5.53;;;3.90;;
67816;SDS011;54614;47.576;7.524;2023-05-21T23:22:19;3.90;;;3.57;;
67816;SDS011;54614;47.576;7.524;2023-05-21T23:24:45;5.80;;;3.93;;
67816;SDS011;54614;47.576;7.524;2023-05-21T23:27:12;4.53;;;3.97;;
67816;SDS011;54614;47.576;7.524;2023-05-21T23:29:39;5.10;;;4.20;;
67816;SDS011;54614;47.576;7.524;2023-05-21T23:32:05;4.53;;;4.10;;
67816;SDS011;54614;47.576;7.524;2023-05-21T23:34:31;5.73;;;4.20;;
67816;SDS011;54614;47.576;7.524;2023-05-21T23:36:57;5.63;;;4.20;;
67816;SDS011;54614;47.576;7.524;2023-05-21T23:39:23;7.23;;;3.93;;
67816;SDS011;54614;47.576;7.524;2023-05-21T23:41:50;4.27;;;3.77;;
67816;SDS011;54614;47.576;7.524;2023-05-21T23:44:16;6.83;;;3.90;;
67816;SDS011;54614;47.576;7.524;2023-05-21T23:46:44;5.67;;;4.00;;
67816;SDS011;54614;47.576;7.524;2023-05-21T23:49:10;4.20;;;3.73;;
67816;SDS011;54614;47.576;7.524;2023-05-21T23:51:36;4.40;;;3.60;;
67816;SDS011;54614;47.576;7.524;2023-05-21T23:54:02;5.53;;;3.80;;
67816;SDS011;54614;47.576;7.524;2023-05-21T23:56:28;4.23;;;3.83;;
67816;SDS011;54614;47.576;7.524;2023-05-21T23:58:54;5.00;;;4.00;;
